createdAt,value
2022-08-05T10:37:11.410Z,68.50
2022-08-05T10:40:03.911Z,61.70
2022-08-05T10:42:36.811Z,60.00
2022-08-05T10:45:21.457Z,56.40
2022-08-05T10:48:30.055Z,57.70
2022-08-05T10:51:21.824Z,61.90
2022-08-05T10:54:00.807Z,58.40
2022-08-05T10:56:31.167Z,56.20
2022-08-05T10:59:12.693Z,49.80
2022-08-05T11:02:14.510Z,50.40
2022-08-05T11:05:00.243Z,49.90
2022-08-05T11:07:33.175Z,50.00
2022-08-05T11:10:27.746Z,46.90
2022-08-05T11:12:57.599Z,49.40
2022-08-05T11:15:59.271Z,50.20
2022-08-05T11:18:34.030Z,49.10
2022-08-05T11:21:11.248Z,45.80
2022-08-05T11:24:05.259Z,47.20
2022-08-05T11:26:33.041Z,47.30
2022-08-05T11:29:13.977Z,46.60
2022-08-05T11:31:54.313Z,47.00
2022-08-05T11:34:37.578Z,47.00
2022-08-05T11:37:06.184Z,47.50
2022-08-05T11:40:00.836Z,42.70
2022-08-05T11:42:37.677Z,40.10
2022-08-05T11:45:14.575Z,41.30
2022-08-05T11:47:54.692Z,40.60
2022-08-05T11:50:22.663Z,40.10
2022-08-05T11:52:53.118Z,38.30
2022-08-05T11:55:20.340Z,38.40
2022-08-05T11:58:09.680Z,40.50
2022-08-05T12:00:38.351Z,40.20
2022-08-05T12:03:29.556Z,37.90
2022-08-05T12:06:01.714Z,40.80
2022-08-05T12:08:31.489Z,41.30
2022-08-05T12:11:05.667Z,41.90
2022-08-05T12:13:48.954Z,41.10
2022-08-05T12:16:19.398Z,43.20
2022-08-05T12:18:52.230Z,40.60
2022-08-05T12:21:41.951Z,38.70
2022-08-05T12:24:17.331Z,37.90
2022-08-05T12:26:46.796Z,38.70
2022-08-05T12:29:23.127Z,41.30
2022-08-05T12:31:54.076Z,41.20
2022-08-05T12:34:28.613Z,41.50
2022-08-05T12:37:22.804Z,42.30
2022-08-05T12:40:03.463Z,41.80
2022-08-05T12:42:37.534Z,39.60
2022-08-05T12:45:08.754Z,40.10
2022-08-05T12:47:38.174Z,41.20
2022-08-05T12:50:25.289Z,41.20
2022-08-05T12:53:00.108Z,38.80
2022-08-05T12:55:32.647Z,41.50
2022-08-05T12:58:48.268Z,41.10
2022-08-05T13:02:02.133Z,40.80
2022-08-05T13:03:42.170Z,39.80
2022-08-05T13:06:16.610Z,37.70
2022-08-05T13:08:50.794Z,39.60
2022-08-05T13:12:01.102Z,39.50
2022-08-05T13:14:35.736Z,39.50
2022-08-05T13:17:16.519Z,38.70
2022-08-05T13:20:23.593Z,37.70
2022-08-05T13:22:53.111Z,39.30
2022-08-05T13:25:22.214Z,38.40
2022-08-05T13:28:07.922Z,39.50
2022-08-05T13:30:38.945Z,40.60
2022-08-05T13:33:06.254Z,38.10
2022-08-05T13:35:47.503Z,38.20
2022-08-05T13:38:30.265Z,37.50
2022-08-05T13:40:59.796Z,37.80
2022-08-05T13:43:44.650Z,36.50
2022-08-05T13:46:14.339Z,37.00
2022-08-05T13:48:57.367Z,37.10
2022-08-05T13:51:36.445Z,36.90
2022-08-05T13:54:12.462Z,36.30
2022-08-05T13:56:50.938Z,35.20
2022-08-05T13:59:21.364Z,35.00
2022-08-05T14:01:57.489Z,36.40
2022-08-05T14:04:49.922Z,35.10
2022-08-05T14:07:25.451Z,39.00
2022-08-05T14:10:18.390Z,38.70
2022-08-05T14:12:48.925Z,39.80
2022-08-05T14:16:04.903Z,39.30
2022-08-05T14:18:04.238Z,39.20
2022-08-05T14:20:31.921Z,40.10
2022-08-05T14:22:59.865Z,42.20
2022-08-05T14:25:28.036Z,41.70
2022-08-05T14:27:55.724Z,42.20
2022-08-05T14:30:22.670Z,43.00
2022-08-05T14:32:53.789Z,43.10
2022-08-05T14:35:22.882Z,43.80
2022-08-05T14:37:55.006Z,44.00
2022-08-05T14:40:24.482Z,46.60
2022-08-05T14:42:51.787Z,47.00
2022-08-05T14:45:18.750Z,46.70
2022-08-05T14:48:02.913Z,47.40
2022-08-05T14:50:31.968Z,46.80
2022-08-05T14:52:59.571Z,48.70
2022-08-05T14:55:28.550Z,49.20
2022-08-05T14:58:11.157Z,51.20
2022-08-05T15:00:58.840Z,54.40
2022-08-05T15:03:33.537Z,54.00
2022-08-05T15:06:07.402Z,56.30
2022-08-05T15:08:59.233Z,54.60
2022-08-05T15:11:53.200Z,50.80
2022-08-05T15:14:35.050Z,48.10
2022-08-05T15:17:20.863Z,48.00
2022-08-05T15:19:56.254Z,49.70
2022-08-05T15:22:27.120Z,49.70
2022-08-05T15:24:55.536Z,49.20
2022-08-05T15:27:22.516Z,49.00
2022-08-05T15:29:54.229Z,47.90
2022-08-05T15:32:27.429Z,47.10
2022-08-05T15:34:56.845Z,43.80
2022-08-05T15:38:34.762Z,45.50
2022-08-05T15:40:58.612Z,45.30
2022-08-05T15:43:12.665Z,42.10
2022-08-05T15:45:46.913Z,41.00
2022-08-05T15:48:15.439Z,41.40
2022-08-05T15:50:43.884Z,41.90
2022-08-05T15:53:13.221Z,42.20
2022-08-05T15:56:03.778Z,42.10
2022-08-05T15:58:35.439Z,42.10
2022-08-05T16:01:17.044Z,43.30
2022-08-05T16:03:48.497Z,43.40
2022-08-05T16:06:19.960Z,43.80
2022-08-05T16:08:50.930Z,43.80
2022-08-05T16:11:21.131Z,42.40
2022-08-05T16:14:05.804Z,43.40
2022-08-05T16:16:33.388Z,41.90
2022-08-05T16:19:00.379Z,42.50
2022-08-05T16:21:58.828Z,42.10
2022-08-05T16:24:41.643Z,42.80
2022-08-05T16:27:03.879Z,43.90
2022-08-05T16:29:37.588Z,43.70
2022-08-05T16:32:09.751Z,43.20
2022-08-05T16:34:39.354Z,43.20
2022-08-05T16:38:02.248Z,43.50
2022-08-05T16:40:05.832Z,43.90
2022-08-05T16:42:35.119Z,43.00
2022-08-05T16:46:02.740Z,43.50
2022-08-05T16:47:55.556Z,43.60
2022-08-05T16:50:24.402Z,43.10
2022-08-05T16:52:51.540Z,44.90
2022-08-05T16:55:20.383Z,46.30
2022-08-05T16:58:00.392Z,45.00
2022-08-05T17:00:34.983Z,44.20
2022-08-05T17:03:15.128Z,45.50
2022-08-05T17:05:42.817Z,46.20
2022-08-05T17:08:10.041Z,48.30
2022-08-05T17:10:40.462Z,50.20
2022-08-05T17:13:16.784Z,49.10
2022-08-05T17:15:48.634Z,48.60
2022-08-05T17:18:17.993Z,51.30
2022-08-05T17:20:46.417Z,51.00
2022-08-05T17:24:03.155Z,52.40
2022-08-05T17:26:04.121Z,52.90
2022-08-05T17:28:31.694Z,50.10
2022-08-05T17:30:58.738Z,45.80
2022-08-05T17:33:25.721Z,46.50
2022-08-05T17:36:07.609Z,46.80
2022-08-05T17:38:36.073Z,46.50
2022-08-05T17:41:03.078Z,45.60
2022-08-05T17:43:47.295Z,46.40
2022-08-05T17:46:18.289Z,46.30
2022-08-05T17:48:47.729Z,44.30
2022-08-05T17:51:21.679Z,47.20
2022-08-05T17:53:54.405Z,47.50
2022-08-05T17:56:22.730Z,47.90
2022-08-05T17:58:51.164Z,47.00
2022-08-05T18:01:20.607Z,47.00
2022-08-05T18:03:59.596Z,45.30
2022-08-05T18:06:31.913Z,46.50
2022-08-05T18:08:59.344Z,46.40
2022-08-05T18:11:33.089Z,46.90
2022-08-05T18:14:07.309Z,46.90
2022-08-05T18:16:46.806Z,47.90
2022-08-05T18:19:22.708Z,48.20
2022-08-05T18:22:07.321Z,49.10
2022-08-05T18:24:37.855Z,49.80
2022-08-05T18:27:18.054Z,49.60
2022-08-05T18:29:52.034Z,51.10
2022-08-05T18:32:20.748Z,52.30
2022-08-05T18:34:54.917Z,52.20
2022-08-05T18:37:34.427Z,55.10
2022-08-05T18:41:50.051Z,54.30
2022-08-05T18:42:56.437Z,55.20
2022-08-05T18:45:23.900Z,57.00
2022-08-05T18:47:56.605Z,58.00
2022-08-05T18:50:46.152Z,58.40
2022-08-05T18:53:22.132Z,58.50
2022-08-05T18:55:51.654Z,60.50
2022-08-05T18:58:18.711Z,60.10
2022-08-05T19:00:54.702Z,60.30
2022-08-05T19:03:53.296Z,61.70
2022-08-05T19:06:18.632Z,61.10
2022-08-05T19:08:48.737Z,62.20
2022-08-05T19:11:16.113Z,62.80
2022-08-05T19:14:00.749Z,63.60
2022-08-05T19:16:46.593Z,64.40
2022-08-05T19:19:14.683Z,65.10
2022-08-05T19:21:47.729Z,65.80
2022-08-05T19:24:18.424Z,66.40
2022-08-05T19:27:03.918Z,66.70
2022-08-05T19:29:36.254Z,67.70
2022-08-05T19:32:05.309Z,68.50
2022-08-05T19:34:36.176Z,68.60
2022-08-05T19:37:03.111Z,69.90
2022-08-05T19:39:30.344Z,70.20
2022-08-05T19:42:07.230Z,70.80
2022-08-05T19:44:44.592Z,71.40
2022-08-05T19:47:15.260Z,72.10
2022-08-05T19:49:45.971Z,72.20
2022-08-05T19:52:31.814Z,72.00
2022-08-05T19:55:06.933Z,71.40
2022-08-05T19:57:47.373Z,72.70
2022-08-05T20:00:22.433Z,73.00
2022-08-05T20:02:49.236Z,73.50
2022-08-05T20:05:24.544Z,74.50
2022-08-05T20:07:56.283Z,75.60
2022-08-05T20:10:25.932Z,75.60
2022-08-05T20:12:53.138Z,77.70
2022-08-05T20:15:48.640Z,77.90
2022-08-05T20:18:32.813Z,77.70
2022-08-05T20:20:59.932Z,80.20
2022-08-05T20:23:40.205Z,81.40
2022-08-05T20:26:16.057Z,78.40
2022-08-05T20:28:50.458Z,81.40
2022-08-05T20:31:23.075Z,83.80
2022-08-05T20:33:56.007Z,85.60
2022-08-05T20:36:24.545Z,84.50
2022-08-05T20:38:57.927Z,83.90
2022-08-05T20:41:44.201Z,88.10
2022-08-05T20:44:17.435Z,88.60
2022-08-05T20:46:48.368Z,89.50
2022-08-05T20:49:23.997Z,90.10
2022-08-05T20:51:53.833Z,90.30
2022-08-05T20:54:25.824Z,90.40
2022-08-05T20:57:14.153Z,90.70
2022-08-05T21:00:10.351Z,90.90
2022-08-05T21:02:30.066Z,91.10
2022-08-05T21:04:57.973Z,92.00
2022-08-05T21:07:50.976Z,91.90
2022-08-05T21:10:16.950Z,91.40
2022-08-05T21:13:09.020Z,91.00
2022-08-05T21:15:33.799Z,92.10
2022-08-05T21:18:01.215Z,92.70
2022-08-05T21:20:33.567Z,92.80
2022-08-05T21:23:01.500Z,92.80
2022-08-05T21:25:33.807Z,93.20
2022-08-05T21:28:03.053Z,93.50
2022-08-05T21:30:31.667Z,93.60
2022-08-05T21:32:59.883Z,93.70
2022-08-05T21:35:43.792Z,93.80
2022-08-05T21:38:19.414Z,93.90
2022-08-05T21:40:47.066Z,94.00
2022-08-05T21:43:24.242Z,94.10
2022-08-05T21:45:57.584Z,94.20
2022-08-05T21:48:28.551Z,94.00
2022-08-05T21:50:56.383Z,94.10
2022-08-05T21:53:27.467Z,94.30
2022-08-05T21:56:04.451Z,94.20
2022-08-05T21:58:33.519Z,94.50
2022-08-05T22:01:01.476Z,94.60
2022-08-05T22:03:52.122Z,94.50
2022-08-05T22:06:22.449Z,94.60
2022-08-05T22:08:52.618Z,94.70
2022-08-05T22:11:35.417Z,94.40
2022-08-05T22:14:05.719Z,94.30
2022-08-05T22:16:56.960Z,94.30
2022-08-05T22:20:02.125Z,94.50
2022-08-05T22:22:14.516Z,94.50
2022-08-05T22:25:00.374Z,94.50
2022-08-05T22:28:09.354Z,94.40
2022-08-05T22:30:35.200Z,94.40
2022-08-05T22:33:15.269Z,94.40
2022-08-05T22:35:49.304Z,94.60
2022-08-05T22:38:19.713Z,94.60
2022-08-05T22:40:49.483Z,94.70
2022-08-05T22:43:22.590Z,94.80
2022-08-05T22:46:12.159Z,94.90
2022-08-05T22:48:41.999Z,95.00
2022-08-05T22:51:15.950Z,95.10
2022-08-05T22:53:51.881Z,95.20
2022-08-05T22:56:30.250Z,95.20
2022-08-05T22:59:04.187Z,95.20
2022-08-05T23:02:04.311Z,95.10
2022-08-05T23:04:33.720Z,95.30
2022-08-05T23:07:00.762Z,95.40
2022-08-05T23:09:58.256Z,95.50
2022-08-05T23:12:17.996Z,95.60
2022-08-05T23:14:45.051Z,95.70
2022-08-05T23:17:34.229Z,95.80
2022-08-05T23:20:15.497Z,95.90
2022-08-05T23:22:48.646Z,95.90
2022-08-05T23:25:52.253Z,95.90
2022-08-05T23:28:06.927Z,95.80
2022-08-05T23:30:40.515Z,95.90
2022-08-05T23:33:19.052Z,96.00
2022-08-05T23:35:50.898Z,96.10
2022-08-05T23:38:18.258Z,96.10
2022-08-05T23:40:50.108Z,96.20
2022-08-05T23:43:25.293Z,96.20
2022-08-05T23:46:20.048Z,96.10
2022-08-05T23:49:00.840Z,95.90
2022-08-05T23:51:55.217Z,96.10
2022-08-05T23:54:30.224Z,96.20
2022-08-05T23:57:04.122Z,96.50
